sensor_id;sensor_type;location;lat;lon;timestamp;temperature;humidity
61201;DHT22;47065;52.898;6.992;2023-06-04T00:00:05;10.30;97.30
61201;DHT22;47065;52.898;6.992;2023-06-04T00:02:32;10.30;97.50
61201;DHT22;47065;52.898;6.992;2023-06-04T00:04:58;10.20;97.90
61201;DHT22;47065;52.898;6.992;2023-06-04T00:07:23;10.20;98.30
61201;DHT22;47065;52.898;6.992;2023-06-04T00:09:49;10.20;98.70
61201;DHT22;47065;52.898;6.992;2023-06-04T00:12:15;10.20;99.10
61201;DHT22;47065;52.898;6.992;2023-06-04T00:14:41;10.10;99.30
61201;DHT22;47065;52.898;6.992;2023-06-04T00:17:08;10.10;99.60
61201;DHT22;47065;52.898;6.992;2023-06-04T00:19:33;10.00;99.80
61201;DHT22;47065;52.898;6.992;2023-06-04T00:21:59;10.00;99.90
61201;DHT22;47065;52.898;6.992;2023-06-04T00:24:25;10.00;99.90
61201;DHT22;47065;52.898;6.992;2023-06-04T00:26:51;10.00;99.90
61201;DHT22;47065;52.898;6.992;2023-06-04T00:29:16;9.90;99.90
61201;DHT22;47065;52.898;6.992;2023-06-04T00:31:42;9.90;99.90
61201;DHT22;47065;52.898;6.992;2023-06-04T00:34:08;9.90;99.90
61201;DHT22;47065;52.898;6.992;2023-06-04T00:36:33;9.80;99.90
61201;DHT22;47065;52.898;6.992;2023-06-04T00:38:59;9.80;99.90
61201;DHT22;47065;52.898;6.992;2023-06-04T00:41:25;9.80;99.90
61201;DHT22;47065;52.898;6.992;2023-06-04T00:43:51;9.70;99.90
61201;DHT22;47065;52.898;6.992;2023-06-04T00:46:28;9.70;99.90
61201;DHT22;47065;52.898;6.992;2023-06-04T00:48:54;9.60;99.90
61201;DHT22;47065;52.898;6.992;2023-06-04T00:51:21;9.60;99.90
61201;DHT22;47065;52.898;6.992;2023-06-04T00:53:48;9.60;99.90
61201;DHT22;47065;52.898;6.992;2023-06-04T00:56:14;9.50;99.90
61201;DHT22;47065;52.898;6.992;2023-06-04T00:58:40;9.50;99.90
61201;DHT22;47065;52.898;6.992;2023-06-04T01:04:04;9.50;99.90
61201;DHT22;47065;52.898;6.992;2023-06-04T01:06:43;9.40;99.90
61201;DHT22;47065;52.898;6.992;2023-06-04T01:09:10;9.40;99.90
61201;DHT22;47065;52.898;6.992;2023-06-04T01:11:37;9.40;99.90
61201;DHT22;47065;52.898;6.992;2023-06-04T01:14:05;9.30;99.90
61201;DHT22;47065;52.898;6.992;2023-06-04T01:16:56;9.40;99.90
61201;DHT22;47065;52.898;6.992;2023-06-04T01:19:45;9.40;99.90
61201;DHT22;47065;52.898;6.992;2023-06-04T01:22:39;9.30;99.90
61201;DHT22;47065;52.898;6.992;2023-06-04T01:25:24;9.30;99.90
61201;DHT22;47065;52.898;6.992;2023-06-04T01:27:54;9.30;99.90
61201;DHT22;47065;52.898;6.992;2023-06-04T01:30:32;9.30;99.90
61201;DHT22;47065;52.898;6.992;2023-06-04T01:33:02;9.30;99.90
61201;DHT22;47065;52.898;6.992;2023-06-04T01:35:28;9.30;99.90
61201;DHT22;47065;52.898;6.992;2023-06-04T01:37:56;9.20;99.90
61201;DHT22;47065;52.898;6.992;2023-06-04T01:40:23;9.20;99.90
61201;DHT22;47065;52.898;6.992;2023-06-04T01:42:49;9.20;99.90
61201;DHT22;47065;52.898;6.992;2023-06-04T01:45:14;9.20;99.90
61201;DHT22;47065;52.898;6.992;2023-06-04T01:47:40;9.20;99.90
61201;DHT22;47065;52.898;6.992;2023-06-04T01:50:07;9.20;99.90
61201;DHT22;47065;52.898;6.992;2023-06-04T01:52:36;9.20;99.90
61201;DHT22;47065;52.898;6.992;2023-06-04T01:55:03;9.20;99.90
61201;DHT22;47065;52.898;6.992;2023-06-04T01:57:30;9.20;99.90
61201;DHT22;47065;52.898;6.992;2023-06-04T01:59:56;9.30;99.90
61201;DHT22;47065;52.898;6.992;2023-06-04T02:02:21;9.30;99.90
61201;DHT22;47065;52.898;6.992;2023-06-04T02:04:47;9.30;99.90
61201;DHT22;47065;52.898;6.992;2023-06-04T02:07:13;9.30;99.90
61201;DHT22;47065;52.898;6.992;2023-06-04T02:09:46;9.30;99.90
61201;DHT22;47065;52.898;6.992;2023-06-04T02:12:12;9.30;99.90
61201;DHT22;47065;52.898;6.992;2023-06-04T02:14:37;9.30;99.90
61201;DHT22;47065;52.898;6.992;2023-06-04T02:17:04;9.30;99.90
61201;DHT22;47065;52.898;6.992;2023-06-04T02:19:30;9.30;99.90
61201;DHT22;47065;52.898;6.992;2023-06-04T02:21:59;9.20;99.90
61201;DHT22;47065;52.898;6.992;2023-06-04T02:24:24;9.20;99.90
61201;DHT22;47065;52.898;6.992;2023-06-04T02:26:50;9.10;99.90
61201;DHT22;47065;52.898;6.992;2023-06-04T02:29:16;9.10;99.90
61201;DHT22;47065;52.898;6.992;2023-06-04T02:31:42;9.10;99.90
61201;DHT22;47065;52.898;6.992;2023-06-04T02:34:07;9.00;99.90
61201;DHT22;47065;52.898;6.992;2023-06-04T02:36:34;9.00;99.90
61201;DHT22;47065;52.898;6.992;2023-06-04T02:38:59;9.00;99.90
61201;DHT22;47065;52.898;6.992;2023-06-04T02:41:26;8.90;99.90
61201;DHT22;47065;52.898;6.992;2023-06-04T02:43:52;8.90;99.90
61201;DHT22;47065;52.898;6.992;2023-06-04T02:46:18;8.90;99.90
61201;DHT22;47065;52.898;6.992;2023-06-04T02:48:43;8.80;99.90
61201;DHT22;47065;52.898;6.992;2023-06-04T02:51:09;8.80;99.90
61201;DHT22;47065;52.898;6.992;2023-06-04T02:53:36;8.80;99.90
61201;DHT22;47065;52.898;6.992;2023-06-04T02:56:02;8.80;99.90
61201;DHT22;47065;52.898;6.992;2023-06-04T02:58:28;8.80;99.90
61201;DHT22;47065;52.898;6.992;2023-06-04T03:00:55;8.80;99.90
61201;DHT22;47065;52.898;6.992;2023-06-04T03:03:21;8.80;99.90
61201;DHT22;47065;52.898;6.992;2023-06-04T03:05:47;8.80;99.90
61201;DHT22;47065;52.898;6.992;2023-06-04T03:08:13;8.80;99.90
61201;DHT22;47065;52.898;6.992;2023-06-04T03:10:39;8.80;99.90
61201;DHT22;47065;52.898;6.992;2023-06-04T03:13:04;8.80;99.90
61201;DHT22;47065;52.898;6.992;2023-06-04T03:15:30;8.80;99.90
61201;DHT22;47065;52.898;6.992;2023-06-04T03:17:56;8.70;99.90
61201;DHT22;47065;52.898;6.992;2023-06-04T03:20:22;8.70;99.90
61201;DHT22;47065;52.898;6.992;2023-06-04T03:22:50;8.70;99.90
61201;DHT22;47065;52.898;6.992;2023-06-04T03:25:16;8.70;99.90
61201;DHT22;47065;52.898;6.992;2023-06-04T03:27:41;8.70;99.90
61201;DHT22;47065;52.898;6.992;2023-06-04T03:30:08;8.70;99.90
61201;DHT22;47065;52.898;6.992;2023-06-04T03:32:33;8.60;99.90
61201;DHT22;47065;52.898;6.992;2023-06-04T03:35:00;8.60;99.90
61201;DHT22;47065;52.898;6.992;2023-06-04T03:37:26;8.60;99.90
61201;DHT22;47065;52.898;6.992;2023-06-04T03:39:52;8.60;99.90
61201;DHT22;47065;52.898;6.992;2023-06-04T03:42:18;8.60;99.90
61201;DHT22;47065;52.898;6.992;2023-06-04T03:44:44;8.60;99.90
61201;DHT22;47065;52.898;6.992;2023-06-04T03:47:10;8.50;99.90
61201;DHT22;47065;52.898;6.992;2023-06-04T03:49:35;8.50;99.90
61201;DHT22;47065;52.898;6.992;2023-06-04T03:52:01;8.50;99.90
61201;DHT22;47065;52.898;6.992;2023-06-04T03:54:27;8.50;99.90
61201;DHT22;47065;52.898;6.992;2023-06-04T03:56:52;8.50;99.90
61201;DHT22;47065;52.898;6.992;2023-06-04T03:59:18;8.50;99.90
61201;DHT22;47065;52.898;6.992;2023-06-04T04:01:44;8.60;99.90
61201;DHT22;47065;52.898;6.992;2023-06-04T04:04:09;8.60;99.90
61201;DHT22;47065;52.898;6.992;2023-06-04T04:06:35;8.60;99.90
61201;DHT22;47065;52.898;6.992;2023-06-04T04:09:02;8.70;99.90
61201;DHT22;47065;52.898;6.992;2023-06-04T04:11:29;8.70;99.90
61201;DHT22;47065;52.898;6.992;2023-06-04T04:13:56;8.70;99.90
61201;DHT22;47065;52.898;6.992;2023-06-04T04:16:21;8.70;99.90
61201;DHT22;47065;52.898;6.992;2023-06-04T04:18:47;8.70;99.90
61201;DHT22;47065;52.898;6.992;2023-06-04T04:21:13;8.80;99.90
61201;DHT22;47065;52.898;6.992;2023-06-04T04:23:39;8.80;99.90
61201;DHT22;47065;52.898;6.992;2023-06-04T04:26:08;8.80;99.90
61201;DHT22;47065;52.898;6.992;2023-06-04T04:28:35;8.80;99.90
61201;DHT22;47065;52.898;6.992;2023-06-04T04:31:01;8.80;99.90
61201;DHT22;47065;52.898;6.992;2023-06-04T04:33:28;8.80;99.90
61201;DHT22;47065;52.898;6.992;2023-06-04T04:36:05;8.90;99.90
61201;DHT22;47065;52.898;6.992;2023-06-04T04:38:34;8.90;99.90
61201;DHT22;47065;52.898;6.992;2023-06-04T04:41:00;8.90;99.90
61201;DHT22;47065;52.898;6.992;2023-06-04T04:43:33;9.00;99.90
61201;DHT22;47065;52.898;6.992;2023-06-04T04:45:59;9.00;99.90
61201;DHT22;47065;52.898;6.992;2023-06-04T04:48:25;9.10;99.90
61201;DHT22;47065;52.898;6.992;2023-06-04T04:50:52;9.10;99.90
61201;DHT22;47065;52.898;6.992;2023-06-04T04:53:17;9.30;99.90
61201;DHT22;47065;52.898;6.992;2023-06-04T04:55:43;9.30;99.90
61201;DHT22;47065;52.898;6.992;2023-06-04T04:58:09;9.40;99.90
61201;DHT22;47065;52.898;6.992;2023-06-04T05:00:35;9.40;99.90
61201;DHT22;47065;52.898;6.992;2023-06-04T05:03:00;9.50;99.90
61201;DHT22;47065;52.898;6.992;2023-06-04T05:05:26;9.50;99.90
61201;DHT22;47065;52.898;6.992;2023-06-04T05:07:52;9.60;99.90
61201;DHT22;47065;52.898;6.992;2023-06-04T05:10:17;9.70;99.90
61201;DHT22;47065;52.898;6.992;2023-06-04T05:12:54;9.70;99.90
61201;DHT22;47065;52.898;6.992;2023-06-04T05:15:20;9.80;99.90
61201;DHT22;47065;52.898;6.992;2023-06-04T05:17:50;9.90;99.90
61201;DHT22;47065;52.898;6.992;2023-06-04T05:20:18;9.90;99.90
61201;DHT22;47065;52.898;6.992;2023-06-04T05:22:44;10.00;99.90
61201;DHT22;47065;52.898;6.992;2023-06-04T05:25:11;10.10;99.90
61201;DHT22;47065;52.898;6.992;2023-06-04T05:27:37;10.20;99.90
61201;DHT22;47065;52.898;6.992;2023-06-04T05:30:06;10.20;99.90
61201;DHT22;47065;52.898;6.992;2023-06-04T05:32:32;10.30;99.90
61201;DHT22;47065;52.898;6.992;2023-06-04T05:35:00;10.40;99.90
61201;DHT22;47065;52.898;6.992;2023-06-04T05:37:26;10.50;99.90
61201;DHT22;47065;52.898;6.992;2023-06-04T05:39:55;10.60;99.90
61201;DHT22;47065;52.898;6.992;2023-06-04T05:42:22;10.70;99.90
61201;DHT22;47065;52.898;6.992;2023-06-04T05:44:48;10.70;99.90
61201;DHT22;47065;52.898;6.992;2023-06-04T05:47:14;10.90;99.90
61201;DHT22;47065;52.898;6.992;2023-06-04T05:49:40;11.00;99.90
61201;DHT22;47065;52.898;6.992;2023-06-04T05:52:06;11.10;99.90
61201;DHT22;47065;52.898;6.992;2023-06-04T05:54:31;11.20;99.90
61201;DHT22;47065;52.898;6.992;2023-06-04T05:56:58;11.30;99.90
61201;DHT22;47065;52.898;6.992;2023-06-04T05:59:24;11.40;99.90
61201;DHT22;47065;52.898;6.992;2023-06-04T06:01:49;11.60;99.90
61201;DHT22;47065;52.898;6.992;2023-06-04T06:04:15;11.70;99.90
61201;DHT22;47065;52.898;6.992;2023-06-04T06:06:42;11.80;99.90
61201;DHT22;47065;52.898;6.992;2023-06-04T06:09:12;12.00;99.90
61201;DHT22;47065;52.898;6.992;2023-06-04T06:11:38;12.00;99.90
61201;DHT22;47065;52.898;6.992;2023-06-04T06:14:03;12.20;99.90
61201;DHT22;47065;52.898;6.992;2023-06-04T06:16:29;12.20;99.90
61201;DHT22;47065;52.898;6.992;2023-06-04T06:18:55;12.30;99.90
61201;DHT22;47065;52.898;6.992;2023-06-04T06:21:21;12.40;99.90
61201;DHT22;47065;52.898;6.992;2023-06-04T06:23:48;12.50;99.90
61201;DHT22;47065;52.898;6.992;2023-06-04T06:26:14;12.60;99.90
61201;DHT22;47065;52.898;6.992;2023-06-04T06:28:39;12.60;99.90
61201;DHT22;47065;52.898;6.992;2023-06-04T06:31:05;12.70;99.90
61201;DHT22;47065;52.898;6.992;2023-06-04T06:33:31;12.80;99.90
61201;DHT22;47065;52.898;6.992;2023-06-04T06:35:57;12.80;99.90
61201;DHT22;47065;52.898;6.992;2023-06-04T06:38:26;12.90;99.90
61201;DHT22;47065;52.898;6.992;2023-06-04T06:40:52;13.00;99.90
61201;DHT22;47065;52.898;6.992;2023-06-04T06:43:18;13.10;99.90
61201;DHT22;47065;52.898;6.992;2023-06-04T06:45:43;13.20;99.90
61201;DHT22;47065;52.898;6.992;2023-06-04T06:48:09;13.30;99.90
61201;DHT22;47065;52.898;6.992;2023-06-04T06:50:35;13.30;99.90
61201;DHT22;47065;52.898;6.992;2023-06-04T06:53:03;13.40;99.90
61201;DHT22;47065;52.898;6.992;2023-06-04T06:55:29;13.50;99.90
61201;DHT22;47065;52.898;6.992;2023-06-04T06:57:54;13.50;99.90
61201;DHT22;47065;52.898;6.992;2023-06-04T07:00:20;13.70;99.90
61201;DHT22;47065;52.898;6.992;2023-06-04T07:02:46;13.70;99.90
61201;DHT22;47065;52.898;6.992;2023-06-04T07:05:12;13.70;99.90
61201;DHT22;47065;52.898;6.992;2023-06-04T07:07:40;13.80;99.90
61201;DHT22;47065;52.898;6.992;2023-06-04T07:10:06;13.90;99.90
61201;DHT22;47065;52.898;6.992;2023-06-04T07:12:31;14.00;99.90
61201;DHT22;47065;52.898;6.992;2023-06-04T07:14:57;14.10;99.90
61201;DHT22;47065;52.898;6.992;2023-06-04T07:17:23;14.50;99.90
61201;DHT22;47065;52.898;6.992;2023-06-04T07:19:48;15.00;99.90
61201;DHT22;47065;52.898;6.992;2023-06-04T07:22:14;15.50;99.90
61201;DHT22;47065;52.898;6.992;2023-06-04T07:24:42;15.90;99.90
61201;DHT22;47065;52.898;6.992;2023-06-04T07:27:12;16.20;99.90
61201;DHT22;47065;52.898;6.992;2023-06-04T07:29:38;16.40;99.90
61201;DHT22;47065;52.898;6.992;2023-06-04T07:32:04;16.60;99.90
61201;DHT22;47065;52.898;6.992;2023-06-04T07:34:30;16.80;99.90
61201;DHT22;47065;52.898;6.992;2023-06-04T07:36:56;17.00;99.90
61201;DHT22;47065;52.898;6.992;2023-06-04T07:39:21;17.10;99.90
61201;DHT22;47065;52.898;6.992;2023-06-04T07:41:47;17.30;99.90
61201;DHT22;47065;52.898;6.992;2023-06-04T07:44:13;17.40;99.90
61201;DHT22;47065;52.898;6.992;2023-06-04T07:46:38;17.40;99.90
61201;DHT22;47065;52.898;6.992;2023-06-04T07:49:04;17.30;99.90
61201;DHT22;47065;52.898;6.992;2023-06-04T07:51:30;17.20;99.90
61201;DHT22;47065;52.898;6.992;2023-06-04T07:53:56;17.10;99.90
61201;DHT22;47065;52.898;6.992;2023-06-04T07:56:22;17.00;99.90
61201;DHT22;47065;52.898;6.992;2023-06-04T07:58:47;17.00;99.90
61201;DHT22;47065;52.898;6.992;2023-06-04T08:01:13;17.00;99.90
61201;DHT22;47065;52.898;6.992;2023-06-04T08:03:39;16.90;99.90
61201;DHT22;47065;52.898;6.992;2023-06-04T08:06:06;17.00;99.90
61201;DHT22;47065;52.898;6.992;2023-06-04T08:08:31;17.00;99.90
61201;DHT22;47065;52.898;6.992;2023-06-04T08:10:59;17.00;99.90
61201;DHT22;47065;52.898;6.992;2023-06-04T08:13:25;17.10;99.90
61201;DHT22;47065;52.898;6.992;2023-06-04T08:15:51;17.20;99.90
61201;DHT22;47065;52.898;6.992;2023-06-04T08:18:17;17.30;99.90
61201;DHT22;47065;52.898;6.992;2023-06-04T08:20:42;17.40;99.90
61201;DHT22;47065;52.898;6.992;2023-06-04T08:23:08;17.50;99.90
61201;DHT22;47065;52.898;6.992;2023-06-04T08:25:36;17.60;99.90
61201;DHT22;47065;52.898;6.992;2023-06-04T08:28:02;17.80;99.90
61201;DHT22;47065;52.898;6.992;2023-06-04T08:30:28;18.00;99.90
61201;DHT22;47065;52.898;6.992;2023-06-04T08:32:54;18.30;99.90
61201;DHT22;47065;52.898;6.992;2023-06-04T08:35:20;18.40;99.90
61201;DHT22;47065;52.898;6.992;2023-06-04T08:37:46;18.80;99.90
61201;DHT22;47065;52.898;6.992;2023-06-04T08:40:12;19.30;99.90
61201;DHT22;47065;52.898;6.992;2023-06-04T08:42:42;19.90;99.90
61201;DHT22;47065;52.898;6.992;2023-06-04T08:45:10;20.70;99.90
61201;DHT22;47065;52.898;6.992;2023-06-04T08:47:39;21.40;99.50
61201;DHT22;47065;52.898;6.992;2023-06-04T08:50:09;22.30;95.20
61201;DHT22;47065;52.898;6.992;2023-06-04T08:52:35;23.00;93.20
61201;DHT22;47065;52.898;6.992;2023-06-04T08:55:01;23.60;88.40
61201;DHT22;47065;52.898;6.992;2023-06-04T08:57:28;24.20;80.70
61201;DHT22;47065;52.898;6.992;2023-06-04T08:59:55;25.00;77.20
61201;DHT22;47065;52.898;6.992;2023-06-04T09:02:22;25.70;71.40
61201;DHT22;47065;52.898;6.992;2023-06-04T09:04:48;26.40;68.80
61201;DHT22;47065;52.898;6.992;2023-06-04T09:07:14;27.00;66.40
61201;DHT22;47065;52.898;6.992;2023-06-04T09:09:44;27.40;59.60
61201;DHT22;47065;52.898;6.992;2023-06-04T09:12:13;27.60;62.20
61201;DHT22;47065;52.898;6.992;2023-06-04T09:14:41;27.80;62.30
61201;DHT22;47065;52.898;6.992;2023-06-04T09:17:06;27.80;61.70
61201;DHT22;47065;52.898;6.992;2023-06-04T09:19:32;27.80;61.30
61201;DHT22;47065;52.898;6.992;2023-06-04T09:21:59;27.80;58.40
61201;DHT22;47065;52.898;6.992;2023-06-04T09:24:41;28.20;56.70
61201;DHT22;47065;52.898;6.992;2023-06-04T09:27:15;28.70;56.40
61201;DHT22;47065;52.898;6.992;2023-06-04T09:29:52;29.20;56.50
61201;DHT22;47065;52.898;6.992;2023-06-04T09:32:29;29.70;52.00
61201;DHT22;47065;52.898;6.992;2023-06-04T09:35:07;29.70;50.40
61201;DHT22;47065;52.898;6.992;2023-06-04T09:37:34;29.40;52.60
61201;DHT22;47065;52.898;6.992;2023-06-04T09:40:00;29.00;52.70
61201;DHT22;47065;52.898;6.992;2023-06-04T09:42:26;29.00;53.90
61201;DHT22;47065;52.898;6.992;2023-06-04T09:44:52;29.00;54.00
61201;DHT22;47065;52.898;6.992;2023-06-04T09:47:18;29.20;52.50
61201;DHT22;47065;52.898;6.992;2023-06-04T09:49:44;29.50;51.90
61201;DHT22;47065;52.898;6.992;2023-06-04T09:52:10;29.80;51.40
61201;DHT22;47065;52.898;6.992;2023-06-04T09:54:38;29.90;51.70
61201;DHT22;47065;52.898;6.992;2023-06-04T09:57:13;30.00;50.70
61201;DHT22;47065;52.898;6.992;2023-06-04T09:59:43;30.00;50.70
61201;DHT22;47065;52.898;6.992;2023-06-04T10:02:09;29.90;51.60
61201;DHT22;47065;52.898;6.992;2023-06-04T10:04:37;29.90;52.00
61201;DHT22;47065;52.898;6.992;2023-06-04T10:07:06;30.00;51.20
61201;DHT22;47065;52.898;6.992;2023-06-04T10:09:35;30.00;50.50
61201;DHT22;47065;52.898;6.992;2023-06-04T10:12:08;29.90;50.00
61201;DHT22;47065;52.898;6.992;2023-06-04T10:14:41;29.90;50.50
61201;DHT22;47065;52.898;6.992;2023-06-04T10:17:08;30.00;50.00
61201;DHT22;47065;52.898;6.992;2023-06-04T10:19:38;29.90;49.90
61201;DHT22;47065;52.898;6.992;2023-06-04T10:22:04;29.70;50.30
61201;DHT22;47065;52.898;6.992;2023-06-04T10:24:30;29.40;50.80
61201;DHT22;47065;52.898;6.992;2023-06-04T10:27:00;29.20;50.50
61201;DHT22;47065;52.898;6.992;2023-06-04T10:29:27;28.90;49.10
61201;DHT22;47065;52.898;6.992;2023-06-04T10:31:55;28.60;50.40
61201;DHT22;47065;52.898;6.992;2023-06-04T10:34:21;28.40;49.80
61201;DHT22;47065;52.898;6.992;2023-06-04T10:36:47;28.20;49.50
61201;DHT22;47065;52.898;6.992;2023-06-04T10:39:13;28.10;49.60
61201;DHT22;47065;52.898;6.992;2023-06-04T10:41:38;27.90;48.40
61201;DHT22;47065;52.898;6.992;2023-06-04T10:44:04;27.80;49.00
61201;DHT22;47065;52.898;6.992;2023-06-04T10:46:40;27.50;49.20
61201;DHT22;47065;52.898;6.992;2023-06-04T10:49:09;27.10;48.40
61201;DHT22;47065;52.898;6.992;2023-06-04T10:51:36;26.70;50.40
61201;DHT22;47065;52.898;6.992;2023-06-04T10:54:04;26.40;50.90
61201;DHT22;47065;52.898;6.992;2023-06-04T10:56:32;26.20;51.40
61201;DHT22;47065;52.898;6.992;2023-06-04T10:58:59;26.00;50.40
61201;DHT22;47065;52.898;6.992;2023-06-04T11:01:28;26.00;49.90
61201;DHT22;47065;52.898;6.992;2023-06-04T11:03:55;25.90;48.30
61201;DHT22;47065;52.898;6.992;2023-06-04T11:06:21;25.70;50.60
61201;DHT22;47065;52.898;6.992;2023-06-04T11:08:47;25.60;50.00
61201;DHT22;47065;52.898;6.992;2023-06-04T11:11:16;25.40;51.20
61201;DHT22;47065;52.898;6.992;2023-06-04T11:13:43;25.20;50.80
61201;DHT22;47065;52.898;6.992;2023-06-04T11:16:19;25.00;51.50
61201;DHT22;47065;52.898;6.992;2023-06-04T11:18:55;24.90;52.20
61201;DHT22;47065;52.898;6.992;2023-06-04T11:21:21;24.70;51.70
61201;DHT22;47065;52.898;6.992;2023-06-04T11:23:47;24.60;51.50
61201;DHT22;47065;52.898;6.992;2023-06-04T11:26:13;24.70;51.60
61201;DHT22;47065;52.898;6.992;2023-06-04T11:28:39;25.00;51.40
61201;DHT22;47065;52.898;6.992;2023-06-04T11:31:08;25.20;51.40
61201;DHT22;47065;52.898;6.992;2023-06-04T11:33:46;25.40;51.70
61201;DHT22;47065;52.898;6.992;2023-06-04T11:36:23;25.30;50.50
61201;DHT22;47065;52.898;6.992;2023-06-04T11:38:58;25.20;50.60
61201;DHT22;47065;52.898;6.992;2023-06-04T11:41:35;25.00;50.60
61201;DHT22;47065;52.898;6.992;2023-06-04T11:44:05;25.00;51.10
61201;DHT22;47065;52.898;6.992;2023-06-04T11:46:35;24.80;51.00
61201;DHT22;47065;52.898;6.992;2023-06-04T11:49:02;24.80;51.00
61201;DHT22;47065;52.898;6.992;2023-06-04T11:51:28;24.90;50.90
61201;DHT22;47065;52.898;6.992;2023-06-04T11:53:54;25.00;51.30
61201;DHT22;47065;52.898;6.992;2023-06-04T11:56:23;25.00;50.50
61201;DHT22;47065;52.898;6.992;2023-06-04T11:58:49;25.00;50.90
61201;DHT22;47065;52.898;6.992;2023-06-04T12:01:16;25.00;52.30
61201;DHT22;47065;52.898;6.992;2023-06-04T12:03:42;25.00;52.10
61201;DHT22;47065;52.898;6.992;2023-06-04T12:06:20;25.00;52.20
61201;DHT22;47065;52.898;6.992;2023-06-04T12:08:53;25.10;52.10
61201;DHT22;47065;52.898;6.992;2023-06-04T12:11:24;25.10;52.50
61201;DHT22;47065;52.898;6.992;2023-06-04T12:13:50;25.30;51.20
61201;DHT22;47065;52.898;6.992;2023-06-04T12:16:16;25.30;51.30
61201;DHT22;47065;52.898;6.992;2023-06-04T12:18:42;25.30;52.10
61201;DHT22;47065;52.898;6.992;2023-06-04T12:21:21;25.20;52.20
61201;DHT22;47065;52.898;6.992;2023-06-04T12:23:53;25.10;51.80
61201;DHT22;47065;52.898;6.992;2023-06-04T12:26:24;25.10;52.10
61201;DHT22;47065;52.898;6.992;2023-06-04T12:29:08;25.00;52.30
61201;DHT22;47065;52.898;6.992;2023-06-04T12:31:36;25.00;52.70
61201;DHT22;47065;52.898;6.992;2023-06-04T12:34:02;25.10;52.50
61201;DHT22;47065;52.898;6.992;2023-06-04T12:36:27;25.30;51.20
61201;DHT22;47065;52.898;6.992;2023-06-04T12:38:59;25.40;51.30
61201;DHT22;47065;52.898;6.992;2023-06-04T12:41:26;25.40;51.60
61201;DHT22;47065;52.898;6.992;2023-06-04T12:43:52;25.40;52.00
61201;DHT22;47065;52.898;6.992;2023-06-04T12:46:17;25.30;52.70
61201;DHT22;47065;52.898;6.992;2023-06-04T12:48:43;25.20;52.80
61201;DHT22;47065;52.898;6.992;2023-06-04T12:51:09;25.20;52.20
61201;DHT22;47065;52.898;6.992;2023-06-04T12:53:39;25.20;52.40
61201;DHT22;47065;52.898;6.992;2023-06-04T12:56:05;25.20;51.70
61201;DHT22;47065;52.898;6.992;2023-06-04T12:58:31;25.40;50.50
61201;DHT22;47065;52.898;6.992;2023-06-04T13:00:56;25.50;51.00
61201;DHT22;47065;52.898;6.992;2023-06-04T13:03:22;25.50;51.70
61201;DHT22;47065;52.898;6.992;2023-06-04T13:05:48;25.50;51.80
61201;DHT22;47065;52.898;6.992;2023-06-04T13:08:14;25.50;51.40
61201;DHT22;47065;52.898;6.992;2023-06-04T13:10:40;25.40;52.20
61201;DHT22;47065;52.898;6.992;2023-06-04T13:13:06;25.30;52.60
61201;DHT22;47065;52.898;6.992;2023-06-04T13:15:31;25.30;53.10
61201;DHT22;47065;52.898;6.992;2023-06-04T13:17:57;25.30;53.40
61201;DHT22;47065;52.898;6.992;2023-06-04T13:20:23;25.30;52.50
61201;DHT22;47065;52.898;6.992;2023-06-04T13:22:48;25.50;52.70
61201;DHT22;47065;52.898;6.992;2023-06-04T13:25:14;25.50;51.90
61201;DHT22;47065;52.898;6.992;2023-06-04T13:27:40;25.40;51.90
61201;DHT22;47065;52.898;6.992;2023-06-04T13:30:06;25.30;52.60
61201;DHT22;47065;52.898;6.992;2023-06-04T13:32:32;25.30;53.40
61201;DHT22;47065;52.898;6.992;2023-06-04T13:34:57;25.20;53.30
61201;DHT22;47065;52.898;6.992;2023-06-04T13:37:23;25.20;53.80
61201;DHT22;47065;52.898;6.992;2023-06-04T13:39:49;25.10;54.20
61201;DHT22;47065;52.898;6.992;2023-06-04T13:42:14;25.20;54.00
61201;DHT22;47065;52.898;6.992;2023-06-04T13:44:40;25.20;54.00
61201;DHT22;47065;52.898;6.992;2023-06-04T13:47:06;25.10;54.60
61201;DHT22;47065;52.898;6.992;2023-06-04T13:49:33;25.00;54.20
61201;DHT22;47065;52.898;6.992;2023-06-04T13:51:59;25.00;54.40
61201;DHT22;47065;52.898;6.992;2023-06-04T13:54:25;25.00;54.90
61201;DHT22;47065;52.898;6.992;2023-06-04T13:56:51;25.20;55.10
61201;DHT22;47065;52.898;6.992;2023-06-04T13:59:17;25.30;54.20
61201;DHT22;47065;52.898;6.992;2023-06-04T14:01:43;25.30;54.30
61201;DHT22;47065;52.898;6.992;2023-06-04T14:04:09;25.20;54.40
61201;DHT22;47065;52.898;6.992;2023-06-04T14:06:37;25.00;55.00
61201;DHT22;47065;52.898;6.992;2023-06-04T14:09:03;24.90;55.50
61201;DHT22;47065;52.898;6.992;2023-06-04T14:11:29;24.70;55.40
61201;DHT22;47065;52.898;6.992;2023-06-04T14:13:55;24.60;55.90
61201;DHT22;47065;52.898;6.992;2023-06-04T14:16:21;24.50;56.20
61201;DHT22;47065;52.898;6.992;2023-06-04T14:18:47;24.50;55.70
61201;DHT22;47065;52.898;6.992;2023-06-04T14:21:12;24.70;55.00
61201;DHT22;47065;52.898;6.992;2023-06-04T14:23:38;24.70;55.20
61201;DHT22;47065;52.898;6.992;2023-06-04T14:26:07;24.70;55.60
61201;DHT22;47065;52.898;6.992;2023-06-04T14:28:32;24.70;55.50
61201;DHT22;47065;52.898;6.992;2023-06-04T14:30:58;24.70;56.20
61201;DHT22;47065;52.898;6.992;2023-06-04T14:33:24;24.70;56.40
61201;DHT22;47065;52.898;6.992;2023-06-04T14:35:50;24.70;56.60
61201;DHT22;47065;52.898;6.992;2023-06-04T14:38:16;24.60;56.80
61201;DHT22;47065;52.898;6.992;2023-06-04T14:40:42;24.60;56.80
61201;DHT22;47065;52.898;6.992;2023-06-04T14:43:10;24.60;56.00
61201;DHT22;47065;52.898;6.992;2023-06-04T14:45:36;24.80;56.70
61201;DHT22;47065;52.898;6.992;2023-06-04T14:48:04;24.80;56.00
61201;DHT22;47065;52.898;6.992;2023-06-04T14:50:30;24.70;55.70
61201;DHT22;47065;52.898;6.992;2023-06-04T14:52:56;24.50;56.10
61201;DHT22;47065;52.898;6.992;2023-06-04T14:55:21;24.20;56.40
61201;DHT22;47065;52.898;6.992;2023-06-04T14:57:50;24.00;57.50
61201;DHT22;47065;52.898;6.992;2023-06-04T15:00:15;24.00;57.70
61201;DHT22;47065;52.898;6.992;2023-06-04T15:02:42;23.90;58.20
61201;DHT22;47065;52.898;6.992;2023-06-04T15:05:07;23.80;58.40
61201;DHT22;47065;52.898;6.992;2023-06-04T15:07:33;23.90;59.00
61201;DHT22;47065;52.898;6.992;2023-06-04T15:09:59;24.00;58.80
61201;DHT22;47065;52.898;6.992;2023-06-04T15:12:27;24.20;58.80
61201;DHT22;47065;52.898;6.992;2023-06-04T15:14:52;24.30;58.30
61201;DHT22;47065;52.898;6.992;2023-06-04T15:17:18;24.30;58.00
61201;DHT22;47065;52.898;6.992;2023-06-04T15:19:44;24.20;58.20
61201;DHT22;47065;52.898;6.992;2023-06-04T15:22:09;24.10;58.10
61201;DHT22;47065;52.898;6.992;2023-06-04T15:24:35;24.10;58.30
61201;DHT22;47065;52.898;6.992;2023-06-04T15:27:00;24.10;58.30
61201;DHT22;47065;52.898;6.992;2023-06-04T15:29:26;24.10;58.90
61201;DHT22;47065;52.898;6.992;2023-06-04T15:31:52;24.10;58.70
61201;DHT22;47065;52.898;6.992;2023-06-04T15:34:18;24.10;58.70
61201;DHT22;47065;52.898;6.992;2023-06-04T15:36:44;24.00;58.90